createdAt,value
2023-05-04T00:00:06.532Z,5.43
2023-05-04T00:01:06.819Z,9.94
2023-05-04T00:02:07.528Z,11.87
2023-05-04T00:03:08.790Z,19.29
2023-05-04T00:04:09.141Z,8.01
2023-05-04T00:05:10.079Z,10.59
2023-05-04T00:06:10.705Z,12.84
2023-05-04T00:07:11.416Z,19.61
2023-05-04T00:08:12.223Z,11.87
2023-05-04T00:09:12.929Z,11.87
2023-05-04T00:10:13.641Z,3.50
2023-05-04T00:11:14.339Z,8.01
2023-05-04T00:12:15.038Z,11.55
2023-05-04T00:13:16.363Z,9.94
2023-05-04T00:14:16.530Z,4.14
2023-05-04T00:15:17.235Z,18.64
2023-05-04T00:16:17.997Z,11.55
2023-05-04T00:17:18.647Z,11.87
2023-05-04T00:18:19.735Z,11.23
2023-05-04T00:19:19.935Z,4.46
2023-05-04T00:20:20.738Z,11.23
2023-05-04T00:21:21.373Z,4.14
2023-05-04T00:22:22.081Z,5.75
2023-05-04T00:23:23.229Z,21.87
2023-05-04T00:24:23.435Z,11.23
2023-05-04T00:25:24.134Z,11.55
2023-05-04T00:26:24.841Z,13.16
2023-05-04T00:27:25.558Z,11.87
2023-05-04T00:28:26.743Z,11.23
2023-05-04T00:29:26.908Z,12.20
2023-05-04T00:30:27.571Z,11.23
2023-05-04T00:31:28.308Z,11.23
2023-05-04T00:32:29.043Z,11.23
2023-05-04T00:33:29.729Z,5.75
2023-05-04T00:34:30.453Z,12.20
2023-05-04T00:35:31.178Z,11.55
2023-05-04T00:36:31.860Z,4.46
2023-05-04T00:37:32.573Z,16.39
2023-05-04T00:38:33.725Z,11.23
2023-05-04T00:39:33.935Z,2.85
2023-05-04T00:40:34.641Z,14.78
2023-05-04T00:41:35.364Z,11.23
2023-05-04T00:42:36.050Z,11.55
2023-05-04T00:43:37.251Z,11.23
2023-05-04T00:44:37.380Z,11.23
2023-05-04T00:45:38.084Z,18.64
2023-05-04T00:46:38.835Z,11.87
2023-05-04T00:47:39.543Z,10.26
2023-05-04T00:48:40.243Z,11.23
2023-05-04T00:49:40.965Z,13.16
2023-05-04T00:50:41.765Z,18.96
2023-05-04T00:51:42.390Z,4.79
2023-05-04T00:52:43.113Z,2.85
2023-05-04T00:53:44.249Z,10.91
2023-05-04T00:54:44.459Z,10.91
2023-05-04T00:55:45.184Z,11.23
2023-05-04T00:56:45.922Z,1.88
2023-05-04T00:57:46.577Z,11.23
2023-05-04T00:58:47.748Z,11.23
2023-05-04T00:59:47.929Z,3.17
2023-05-04T01:00:48.637Z,11.23
2023-05-04T01:01:49.307Z,11.87
2023-05-04T01:02:50.068Z,10.59
2023-05-04T01:03:51.278Z,10.59
2023-05-04T01:04:51.442Z,10.59
2023-05-04T01:05:52.178Z,17.68
2023-05-04T01:06:52.856Z,13.16
2023-05-04T01:07:53.560Z,20.25
2023-05-04T01:08:54.740Z,2.85
2023-05-04T01:09:54.941Z,19.29
2023-05-04T01:10:55.640Z,2.85
2023-05-04T01:11:56.352Z,10.59
2023-05-04T01:12:57.076Z,2.53
2023-05-04T01:13:58.251Z,10.59
2023-05-04T01:14:58.437Z,10.26
2023-05-04T01:15:59.151Z,2.85
2023-05-04T01:16:59.927Z,11.87
2023-05-04T01:18:00.664Z,9.94
2023-05-04T01:19:01.734Z,10.59
2023-05-04T01:20:02.262Z,9.62
2023-05-04T01:21:02.660Z,2.85
2023-05-04T01:22:03.332Z,10.91
2023-05-04T01:23:04.067Z,1.88
2023-05-04T01:24:05.234Z,13.81
2023-05-04T01:25:05.448Z,6.40
2023-05-04T01:26:06.147Z,2.85
2023-05-04T01:27:06.854Z,11.87
2023-05-04T01:28:07.588Z,15.10
2023-05-04T01:29:08.771Z,10.59
2023-05-04T01:30:08.929Z,10.59
2023-05-04T01:31:09.670Z,9.94
2023-05-04T01:32:10.320Z,10.59
2023-05-04T01:33:11.187Z,11.55
2023-05-04T01:34:12.237Z,10.59
2023-05-04T01:35:12.436Z,19.61
2023-05-04T01:36:13.160Z,17.35
2023-05-04T01:37:13.845Z,2.21
2023-05-04T01:38:14.548Z,10.26
2023-05-04T01:39:15.736Z,6.40
2023-05-04T01:40:15.939Z,3.50
2023-05-04T01:41:16.646Z,12.20
2023-05-04T01:42:17.352Z,1.88
2023-05-04T01:43:18.044Z,18.00
2023-05-04T01:44:19.252Z,9.94
2023-05-04T01:45:19.374Z,17.03
2023-05-04T01:46:20.139Z,10.59
2023-05-04T01:47:20.824Z,2.53
2023-05-04T01:48:21.531Z,10.26
2023-05-04T01:49:22.744Z,2.85
2023-05-04T01:50:22.947Z,6.07
2023-05-04T01:51:23.677Z,17.35
2023-05-04T01:52:24.354Z,17.35
2023-05-04T01:53:25.068Z,9.94
2023-05-04T01:54:26.232Z,6.72
2023-05-04T01:55:26.438Z,9.62
2023-05-04T01:56:27.140Z,10.26
2023-05-04T01:57:27.838Z,12.20
2023-05-04T01:58:28.543Z,18.00
2023-05-04T01:59:29.756Z,10.91
2023-05-04T02:00:29.887Z,9.94
2023-05-04T02:01:30.619Z,5.43
2023-05-04T02:02:31.412Z,2.21
2023-05-04T02:03:32.140Z,17.03
2023-05-04T02:04:33.234Z,10.26
2023-05-04T02:05:33.431Z,9.94
2023-05-04T02:06:34.160Z,10.59
2023-05-04T02:07:34.837Z,8.97
2023-05-04T02:08:35.538Z,17.03
2023-05-04T02:09:36.745Z,9.62
2023-05-04T02:10:36.936Z,18.32
2023-05-04T02:11:37.664Z,-0.37
2023-05-04T02:12:38.367Z,13.81
2023-05-04T02:13:39.052Z,4.14
2023-05-04T02:14:40.253Z,1.88
2023-05-04T02:15:40.492Z,19.29
2023-05-04T02:16:41.186Z,9.62
2023-05-04T02:17:41.926Z,9.94
2023-05-04T02:18:42.577Z,9.94
2023-05-04T02:19:43.738Z,17.03
2023-05-04T02:20:43.933Z,10.91
2023-05-04T02:21:44.686Z,7.69
2023-05-04T02:22:45.354Z,14.45
2023-05-04T02:23:46.052Z,5.43
2023-05-04T02:24:47.233Z,10.26
2023-05-04T02:25:47.460Z,9.62
2023-05-04T02:26:48.151Z,1.56
2023-05-04T02:27:48.854Z,18.32
2023-05-04T02:28:49.561Z,9.62
2023-05-04T02:29:51.254Z,10.91
2023-05-04T02:30:50.892Z,8.97
2023-05-04T02:31:51.620Z,9.30
2023-05-04T02:32:52.322Z,10.26
2023-05-04T02:33:53.046Z,9.62
2023-05-04T02:34:54.274Z,9.94
2023-05-04T02:35:54.444Z,0.27
2023-05-04T02:36:55.292Z,0.92
2023-05-04T02:37:56.022Z,0.60
2023-05-04T02:38:56.723Z,4.79
2023-05-04T02:39:57.755Z,9.94
2023-05-04T02:40:57.938Z,17.35
2023-05-04T02:41:58.656Z,-0.05
2023-05-04T02:42:59.359Z,4.14
2023-05-04T02:44:00.065Z,10.26
2023-05-04T02:45:01.266Z,17.03
2023-05-04T02:46:01.464Z,9.62
2023-05-04T02:47:02.144Z,9.62
2023-05-04T02:48:02.968Z,9.62
2023-05-04T02:49:03.717Z,3.17
2023-05-04T02:50:04.994Z,7.69
2023-05-04T02:51:05.268Z,10.59
2023-05-04T02:52:06.053Z,-1.02
2023-05-04T02:53:06.688Z,9.30
2023-05-04T02:54:07.384Z,2.53
2023-05-04T02:55:08.242Z,4.46
2023-05-04T02:56:08.943Z,-0.05
2023-05-04T02:57:09.653Z,8.97
2023-05-04T02:58:10.358Z,8.97
2023-05-04T02:59:11.053Z,5.11
2023-05-04T03:00:11.759Z,-0.37
2023-05-04T03:01:12.419Z,18.64
2023-05-04T03:02:13.099Z,9.94
2023-05-04T03:03:13.775Z,18.64
2023-05-04T03:04:14.496Z,8.97
2023-05-04T03:05:15.242Z,16.71
2023-05-04T03:06:15.954Z,1.24
2023-05-04T03:07:16.832Z,8.65
2023-05-04T03:08:17.465Z,18.32
2023-05-04T03:09:18.199Z,5.11
2023-05-04T03:10:19.247Z,9.30
2023-05-04T03:11:19.456Z,16.71
2023-05-04T03:12:20.155Z,19.29
2023-05-04T03:13:20.917Z,6.72
2023-05-04T03:14:21.570Z,8.01
2023-05-04T03:15:22.760Z,8.01
2023-05-04T03:16:22.949Z,9.30
2023-05-04T03:17:23.647Z,17.35
2023-05-04T03:18:24.381Z,9.30
2023-05-04T03:19:25.067Z,13.16
2023-05-04T03:20:26.251Z,-0.69
2023-05-04T03:21:26.465Z,2.21
2023-05-04T03:22:27.272Z,8.65
2023-05-04T03:23:27.921Z,8.65
2023-05-04T03:24:28.642Z,9.30
2023-05-04T03:25:29.750Z,0.60
2023-05-04T03:26:29.963Z,8.97
2023-05-04T03:27:30.676Z,-1.02
2023-05-04T03:28:31.387Z,8.97
2023-05-04T03:29:32.097Z,10.26
2023-05-04T03:30:33.287Z,11.23
2023-05-04T03:31:33.505Z,9.94
2023-05-04T03:32:34.188Z,8.65
2023-05-04T03:33:34.884Z,8.97
2023-05-04T03:34:35.590Z,-0.69
2023-05-04T03:35:36.752Z,-0.69
2023-05-04T03:36:36.959Z,13.49
2023-05-04T03:37:37.700Z,10.91
2023-05-04T03:38:38.377Z,8.65
2023-05-04T03:39:39.081Z,7.69
2023-05-04T03:40:40.272Z,8.65
2023-05-04T03:41:40.488Z,16.06
2023-05-04T03:42:41.186Z,6.40
2023-05-04T03:43:41.887Z,8.97
2023-05-04T03:44:42.594Z,8.65
2023-05-04T03:45:43.785Z,8.33
2023-05-04T03:46:43.946Z,8.97
2023-05-04T03:47:44.705Z,19.29
2023-05-04T03:48:45.398Z,17.68
2023-05-04T03:49:46.100Z,18.32
2023-05-04T03:50:47.264Z,8.97
2023-05-04T03:51:47.462Z,8.65
2023-05-04T03:52:48.319Z,1.24
2023-05-04T03:53:48.956Z,-1.34
2023-05-04T03:54:49.650Z,-1.02
2023-05-04T03:55:50.743Z,7.36
2023-05-04T03:56:50.954Z,8.97
2023-05-04T03:57:51.656Z,18.00
2023-05-04T03:58:52.370Z,8.97
2023-05-04T03:59:53.692Z,10.59
2023-05-04T04:00:53.767Z,8.65
2023-05-04T04:01:54.457Z,8.01
2023-05-04T04:02:55.197Z,8.65
2023-05-04T04:03:55.988Z,8.65
2023-05-04T04:04:56.666Z,0.92
2023-05-04T04:05:57.747Z,0.27
2023-05-04T04:06:57.969Z,0.92
2023-05-04T04:07:58.687Z,8.33
2023-05-04T04:08:59.355Z,17.35
2023-05-04T04:10:00.085Z,9.62
2023-05-04T04:11:01.266Z,8.65
2023-05-04T04:12:01.458Z,8.65
2023-05-04T04:13:02.195Z,8.33
2023-05-04T04:14:02.859Z,3.50
2023-05-04T04:15:03.574Z,16.39
2023-05-04T04:16:04.803Z,5.75
2023-05-04T04:17:05.001Z,-1.02
2023-05-04T04:18:05.746Z,13.16
2023-05-04T04:19:06.430Z,8.33
2023-05-04T04:20:07.385Z,8.33
2023-05-04T04:21:07.755Z,8.33
2023-05-04T04:22:08.452Z,-1.02
2023-05-04T04:23:09.170Z,-0.69
2023-05-04T04:24:09.866Z,2.85
2023-05-04T04:25:10.587Z,12.84
2023-05-04T04:26:11.743Z,8.01
2023-05-04T04:27:11.951Z,16.39
2023-05-04T04:28:12.655Z,15.42
2023-05-04T04:29:13.368Z,9.30
2023-05-04T04:30:14.111Z,6.72
2023-05-04T04:31:15.312Z,8.33
2023-05-04T04:32:15.492Z,-0.37
2023-05-04T04:33:16.196Z,7.69
2023-05-04T04:34:16.908Z,6.72
2023-05-04T04:35:17.615Z,-0.37
2023-05-04T04:36:18.752Z,3.50
2023-05-04T04:37:18.950Z,8.33
2023-05-04T04:38:19.686Z,3.50
2023-05-04T04:39:20.392Z,8.01
2023-05-04T04:40:21.082Z,18.00
2023-05-04T04:41:22.249Z,13.16
2023-05-04T04:42:22.470Z,0.92
2023-05-04T04:43:23.162Z,10.91
2023-05-04T04:44:23.876Z,8.33
2023-05-04T04:45:24.592Z,8.33
2023-05-04T04:46:25.805Z,-1.66
2023-05-04T04:47:26.007Z,13.49
2023-05-04T04:48:26.700Z,-0.69
2023-05-04T04:49:27.436Z,8.01
2023-05-04T04:50:28.144Z,17.35
2023-05-04T04:51:29.263Z,8.33
2023-05-04T04:52:29.468Z,15.10
2023-05-04T04:53:30.201Z,8.33
2023-05-04T04:54:30.877Z,0.92
2023-05-04T04:55:31.582Z,16.39
2023-05-04T04:56:32.747Z,17.35
2023-05-04T04:57:32.953Z,0.27
2023-05-04T04:58:33.667Z,8.33
2023-05-04T04:59:34.363Z,8.33
2023-05-04T05:00:35.070Z,7.69
2023-05-04T05:01:36.440Z,5.11
2023-05-04T05:02:36.807Z,0.27
2023-05-04T05:03:37.486Z,8.01
2023-05-04T05:04:38.226Z,3.17
2023-05-04T05:05:38.894Z,7.69
2023-05-04T05:06:39.798Z,8.01
2023-05-04T05:07:40.459Z,0.27
2023-05-04T05:08:41.196Z,8.01
2023-05-04T05:09:41.882Z,2.85
2023-05-04T05:10:44.085Z,8.33
2023-05-04T05:11:43.750Z,16.71
2023-05-04T05:12:43.984Z,8.33
2023-05-04T05:13:44.669Z,8.01
2023-05-04T05:14:45.363Z,0.60
2023-05-04T05:15:46.077Z,8.01
2023-05-04T05:16:47.322Z,8.33
2023-05-04T05:17:47.566Z,8.01
2023-05-04T05:18:48.232Z,4.46
2023-05-04T05:19:48.917Z,15.74
2023-05-04T05:20:49.628Z,4.79
2023-05-04T05:21:50.752Z,17.35
2023-05-04T05:22:50.963Z,-1.34
2023-05-04T05:23:51.684Z,-0.05
2023-05-04T05:24:52.363Z,5.75
2023-05-04T05:25:53.071Z,-2.30
2023-05-04T05:26:54.261Z,6.72
2023-05-04T05:27:54.455Z,-1.34
2023-05-04T05:28:55.162Z,14.13
2023-05-04T05:29:55.869Z,12.84
2023-05-04T05:30:56.638Z,3.17
2023-05-04T05:31:57.773Z,17.35
2023-05-04T05:32:57.966Z,13.16
2023-05-04T05:33:58.663Z,8.01
2023-05-04T05:34:59.370Z,16.39
2023-05-04T05:36:00.079Z,7.69
2023-05-04T05:37:01.256Z,0.60
2023-05-04T05:38:01.466Z,-1.34
2023-05-04T05:39:02.306Z,8.33
2023-05-04T05:40:03.142Z,8.01
2023-05-04T05:41:03.916Z,15.74
2023-05-04T05:42:04.755Z,10.26
2023-05-04T05:43:05.476Z,7.69
2023-05-04T05:44:06.167Z,14.78
2023-05-04T05:45:06.879Z,11.87
2023-05-04T05:46:07.604Z,11.87
2023-05-04T05:47:08.765Z,-0.69
2023-05-04T05:48:08.965Z,8.33
2023-05-04T05:49:09.620Z,7.04
2023-05-04T05:50:10.323Z,7.04
2023-05-04T05:51:11.039Z,-0.37
2023-05-04T05:52:11.768Z,7.36
2023-05-04T05:53:12.475Z,6.07
2023-05-04T05:54:13.245Z,3.82
2023-05-04T05:55:13.898Z,8.01
2023-05-04T05:56:14.602Z,8.33
2023-05-04T05:57:15.759Z,4.46
2023-05-04T05:58:15.962Z,-0.37
2023-05-04T05:59:16.666Z,8.33
2023-05-04T06:00:17.372Z,3.82
2023-05-04T06:01:18.341Z,4.14
2023-05-04T06:02:19.341Z,8.97
2023-05-04T06:03:19.680Z,6.40
2023-05-04T06:04:20.491Z,-0.37
2023-05-04T06:05:21.179Z,8.33
2023-05-04T06:06:21.881Z,3.17
2023-05-04T06:07:22.757Z,8.33
2023-05-04T06:08:23.459Z,8.33
2023-05-04T06:09:24.203Z,8.65
2023-05-04T06:10:24.867Z,8.33
2023-05-04T06:11:25.584Z,18.00
2023-05-04T06:12:26.770Z,-0.69
2023-05-04T06:13:26.959Z,8.33
2023-05-04T06:14:27.665Z,-0.37
2023-05-04T06:15:28.383Z,8.65
2023-05-04T06:16:29.125Z,6.40
2023-05-04T06:17:30.412Z,8.33
2023-05-04T06:18:30.543Z,8.33
2023-05-04T06:19:31.604Z,8.97
2023-05-04T06:20:31.780Z,7.69
2023-05-04T06:21:32.482Z,5.75
2023-05-04T06:22:33.277Z,16.71
2023-05-04T06:23:33.975Z,17.68
2023-05-04T06:24:34.697Z,8.97
2023-05-04T06:25:35.384Z,7.36
2023-05-04T06:26:36.081Z,16.39
2023-05-04T06:27:36.813Z,8.65
2023-05-04T06:28:37.590Z,9.30
2023-05-04T06:29:38.259Z,0.27
2023-05-04T06:30:38.930Z,17.03
2023-05-04T06:31:39.702Z,-0.37
2023-05-04T06:32:40.450Z,8.33
2023-05-04T06:33:41.115Z,8.33
2023-05-04T06:34:42.130Z,16.71
2023-05-04T06:35:42.771Z,8.97
2023-05-04T06:36:43.475Z,10.91
2023-05-04T06:37:44.196Z,3.50
2023-05-04T06:38:44.900Z,7.04
2023-05-04T06:39:45.648Z,18.00
2023-05-04T06:40:46.307Z,14.13
2023-05-04T06:41:47.016Z,12.20
2023-05-04T06:42:47.760Z,0.60
2023-05-04T06:43:48.464Z,5.11
2023-05-04T06:44:49.178Z,9.30
2023-05-04T06:45:49.885Z,0.92
2023-05-04T06:46:50.576Z,0.92
2023-05-04T06:47:51.842Z,3.17
2023-05-04T06:48:52.004Z,14.45
2023-05-04T06:49:52.704Z,9.62
2023-05-04T06:50:53.438Z,9.62
2023-05-04T06:51:54.125Z,9.30
2023-05-04T06:52:54.843Z,10.59
2023-05-04T06:53:55.549Z,9.62
2023-05-04T06:54:56.281Z,2.85
2023-05-04T06:55:56.982Z,9.62
2023-05-04T06:56:57.668Z,5.75
2023-05-04T06:57:58.380Z,16.39
2023-05-04T06:58:59.085Z,16.39
2023-05-04T06:59:59.797Z,9.62
2023-05-04T07:01:00.535Z,9.62
2023-05-04T07:02:01.204Z,5.11
2023-05-04T07:03:02.510Z,9.30
2023-05-04T07:04:02.727Z,12.20
2023-05-04T07:05:03.414Z,10.26
2023-05-04T07:06:04.127Z,2.21
2023-05-04T07:07:04.841Z,17.35
2023-05-04T07:08:05.759Z,16.06
2023-05-04T07:09:06.463Z,9.62
2023-05-04T07:10:07.179Z,9.62
2023-05-04T07:11:07.872Z,9.62
2023-05-04T07:12:08.578Z,15.42
2023-05-04T07:13:09.413Z,7.04
2023-05-04T07:14:10.611Z,3.82
2023-05-04T07:15:10.786Z,9.30
2023-05-04T07:16:11.506Z,10.59
2023-05-04T07:17:12.188Z,9.94
2023-05-04T07:18:13.211Z,11.23
2023-05-04T07:19:13.416Z,15.10
2023-05-04T07:20:14.117Z,9.94
2023-05-04T07:21:27.026Z,18.32
2023-05-04T07:22:16.433Z,14.78
2023-05-04T07:23:16.159Z,13.16
2023-05-04T07:24:16.865Z,7.69
2023-05-04T07:25:17.579Z,18.32
2023-05-04T07:26:18.253Z,2.53
2023-05-04T07:27:18.960Z,6.40
2023-05-04T07:28:19.774Z,6.07
2023-05-04T07:29:20.487Z,18.64
2023-05-04T07:30:21.185Z,11.55
2023-05-04T07:31:21.874Z,8.65
2023-05-04T07:32:22.630Z,11.23
2023-05-04T07:33:23.790Z,5.75
2023-05-04T07:34:34.036Z,18.00
2023-05-04T07:35:25.535Z,13.81
2023-05-04T07:36:25.238Z,6.72
2023-05-04T07:37:25.962Z,15.74
2023-05-04T07:38:26.647Z,11.23
2023-05-04T07:39:27.361Z,11.55
2023-05-04T07:40:28.157Z,11.87
2023-05-04T07:41:28.785Z,11.23
2023-05-04T07:42:29.489Z,15.74
2023-05-04T07:43:30.269Z,16.71
2023-05-04T07:44:30.970Z,5.11
2023-05-04T07:45:31.674Z,12.20
2023-05-04T07:46:32.466Z,12.20
2023-05-04T07:47:33.136Z,18.64
2023-05-04T07:48:34.294Z,18.32
2023-05-04T07:49:34.433Z,12.20
2023-05-04T07:50:35.134Z,11.87
2023-05-04T07:51:35.844Z,8.01
2023-05-04T07:52:36.542Z,18.00
2023-05-04T07:53:37.265Z,12.52
2023-05-04T07:54:37.967Z,14.78
2023-05-04T07:55:38.777Z,6.07
2023-05-04T07:56:39.411Z,12.84
2023-05-04T07:57:40.106Z,15.74
2023-05-04T07:58:40.818Z,12.84
2023-05-04T07:59:41.527Z,13.16
2023-05-04T08:00:42.231Z,19.29
2023-05-04T08:01:44.219Z,12.84
2023-05-04T08:02:43.883Z,12.84
2023-05-04T08:03:44.128Z,7.36
2023-05-04T08:04:44.801Z,19.93
2023-05-04T08:05:45.603Z,13.16
2023-05-04T08:06:46.423Z,13.16
2023-05-04T08:07:47.181Z,14.78
2023-05-04T08:08:48.278Z,13.81
2023-05-04T08:09:48.488Z,19.29
2023-05-04T08:10:49.243Z,15.10
2023-05-04T08:11:49.902Z,19.93
2023-05-04T08:12:50.625Z,20.25
2023-05-04T08:13:51.785Z,13.81
2023-05-04T08:14:51.991Z,14.13
2023-05-04T08:15:52.691Z,14.13
2023-05-04T08:16:53.397Z,6.72
2023-05-04T08:17:54.109Z,12.84
2023-05-04T08:18:55.302Z,7.36
2023-05-04T08:19:55.484Z,20.25
2023-05-04T08:20:56.193Z,14.45
2023-05-04T08:21:56.890Z,14.78
2023-05-04T08:22:57.596Z,8.33
2023-05-04T08:23:58.796Z,14.13
2023-05-04T08:24:59.031Z,14.78
2023-05-04T08:25:59.754Z,15.10
2023-05-04T08:27:08.012Z,14.13
2023-05-04T08:28:02.039Z,19.93
2023-05-04T08:29:01.781Z,15.10
2023-05-04T08:30:02.493Z,20.90
2023-05-04T08:31:03.201Z,8.97
2023-05-04T08:32:04.014Z,20.25
2023-05-04T08:33:04.921Z,15.42
2023-05-04T08:34:32.254Z,15.42
2023-05-04T08:35:07.541Z,15.74
2023-05-04T08:36:07.247Z,20.58
2023-05-04T08:37:07.952Z,20.25
2023-05-04T08:38:08.660Z,15.74
2023-05-04T08:39:09.792Z,15.74
2023-05-04T08:40:10.006Z,14.78
2023-05-04T08:41:10.777Z,16.39
2023-05-04T08:42:11.413Z,16.39
2023-05-04T08:43:12.152Z,13.49
2023-05-04T08:44:13.323Z,16.06
2023-05-04T08:45:13.532Z,9.94
2023-05-04T08:46:14.307Z,15.74
2023-05-04T08:47:15.013Z,21.87
2023-05-04T08:48:15.717Z,20.90
2023-05-04T08:49:16.797Z,17.68
2023-05-04T08:50:17.028Z,16.71
2023-05-04T08:51:17.722Z,16.39
2023-05-04T08:52:18.431Z,21.22
2023-05-04T08:53:19.126Z,16.71
2023-05-04T08:54:19.872Z,13.16
2023-05-04T08:55:20.556Z,17.35
2023-05-04T08:56:21.283Z,12.52
2023-05-04T08:57:21.974Z,17.68
2023-05-04T08:58:22.672Z,12.52
2023-05-04T08:59:23.873Z,12.20
2023-05-04T09:00:24.263Z,17.03
2023-05-04T09:01:25.040Z,16.39
2023-05-04T09:02:25.796Z,12.52
2023-05-04T09:03:26.500Z,16.39
2023-05-04T09:04:29.220Z,22.51
2023-05-04T09:05:27.950Z,18.00
2023-05-04T09:06:28.589Z,15.10
2023-05-04T09:07:29.290Z,15.10
2023-05-04T09:08:29.994Z,22.83
2023-05-04T09:09:30.797Z,20.25
2023-05-04T09:10:31.530Z,22.83
2023-05-04T09:11:32.358Z,22.83
2023-05-04T09:12:33.027Z,18.64
2023-05-04T09:13:33.710Z,17.03
2023-05-04T09:14:34.840Z,19.61
2023-05-04T09:15:35.027Z,18.64
2023-05-04T09:16:35.806Z,23.48
2023-05-04T09:17:42.009Z,14.13
2023-05-04T09:18:38.069Z,18.96
2023-05-04T09:19:37.797Z,19.61
2023-05-04T09:20:38.551Z,16.71
2023-05-04T09:21:39.217Z,18.64
2023-05-04T09:22:39.925Z,21.54
2023-05-04T09:23:40.653Z,18.96
2023-05-04T09:24:41.830Z,13.81
2023-05-04T09:25:42.034Z,18.96
2023-05-04T09:26:42.851Z,18.96
2023-05-04T09:27:43.550Z,23.80
2023-05-04T09:28:44.255Z,19.93
2023-05-04T09:29:45.002Z,25.09
2023-05-04T09:30:45.733Z,19.93
2023-05-04T09:31:46.419Z,19.61
2023-05-04T09:32:47.145Z,18.96
2023-05-04T09:33:47.838Z,23.15
2023-05-04T09:34:48.555Z,19.29
2023-05-04T09:35:49.384Z,19.93
2023-05-04T09:36:50.028Z,20.90
2023-05-04T09:37:50.725Z,20.58
2023-05-04T09:38:51.432Z,24.12
2023-05-04T09:39:52.308Z,20.58
2023-05-04T09:40:53.014Z,21.54
2023-05-04T09:41:53.761Z,24.44
2023-05-04T09:42:54.433Z,22.19
2023-05-04T09:43:55.136Z,16.06
2023-05-04T09:44:56.307Z,16.71
2023-05-04T09:45:56.577Z,20.90
2023-05-04T09:46:57.209Z,19.93
2023-05-04T09:47:57.959Z,21.22
2023-05-04T09:48:58.633Z,21.54
2023-05-04T09:49:59.813Z,21.54
2023-05-04T09:51:00.224Z,20.58
2023-05-04T09:52:00.862Z,21.22
2023-05-04T09:53:01.571Z,23.48
2023-05-04T09:54:02.805Z,16.71
2023-05-04T09:55:03.164Z,17.35
2023-05-04T09:56:05.736Z,26.38
2023-05-04T09:57:04.603Z,21.54
2023-05-04T09:58:05.239Z,21.22
2023-05-04T09:59:05.958Z,23.80
2023-05-04T10:00:06.664Z,22.83
2023-05-04T10:01:07.380Z,18.96
2023-05-04T10:02:18.865Z,21.87
2023-05-04T10:03:09.709Z,23.15
2023-05-04T10:04:09.384Z,19.93
2023-05-04T10:05:10.343Z,22.51
2023-05-04T10:06:11.138Z,25.73
2023-05-04T10:07:11.784Z,24.44
2023-05-04T10:08:12.496Z,23.15
2023-05-04T10:09:13.201Z,26.38
2023-05-04T10:10:14.355Z,18.64
2023-05-04T10:11:14.532Z,20.25
2023-05-04T10:12:15.338Z,22.19
2023-05-04T10:13:16.113Z,27.99
2023-05-04T10:14:16.765Z,29.28
2023-05-04T10:15:17.836Z,23.48
2023-05-04T10:16:18.059Z,27.02
2023-05-04T10:17:18.727Z,22.19
2023-05-04T10:18:19.446Z,28.31
2023-05-04T10:19:20.148Z,26.05
2023-05-04T10:20:21.335Z,27.99
2023-05-04T10:21:21.542Z,24.12
2023-05-04T10:22:22.209Z,23.48
2023-05-04T10:23:24.035Z,22.83
2023-05-04T10:24:23.815Z,24.77
2023-05-04T10:25:24.828Z,24.44
2023-05-04T10:26:25.050Z,28.31
2023-05-04T10:27:25.781Z,28.96
2023-05-04T10:28:26.437Z,20.58
2023-05-04T10:29:27.152Z,23.48
2023-05-04T10:30:28.330Z,24.77
2023-05-04T10:31:28.544Z,25.41
2023-05-04T10:32:29.250Z,28.31
2023-05-04T10:33:29.933Z,20.58
2023-05-04T10:34:30.633Z,28.63
2023-05-04T10:35:31.375Z,25.09
2023-05-04T10:36:32.095Z,24.77
2023-05-04T10:37:32.744Z,21.22
2023-05-04T10:38:33.447Z,29.28
2023-05-04T10:39:34.176Z,20.90
2023-05-04T10:40:35.327Z,21.22
2023-05-04T10:41:35.533Z,21.22
2023-05-04T10:42:36.274Z,20.58
2023-05-04T10:43:36.950Z,25.73
2023-05-04T10:44:37.703Z,25.41
2023-05-04T10:45:38.862Z,20.90
2023-05-04T10:46:39.052Z,26.05
2023-05-04T10:47:39.763Z,25.41
2023-05-04T10:48:40.487Z,26.05
2023-05-04T10:49:41.194Z,30.24
2023-05-04T10:50:41.905Z,21.87
2023-05-04T10:51:48.928Z,26.70
2023-05-04T10:52:44.213Z,25.73
2023-05-04T10:53:43.915Z,26.38
2023-05-04T10:54:44.620Z,24.44
2023-05-04T10:55:45.344Z,26.05
2023-05-04T10:56:46.067Z,22.83
2023-05-04T10:57:46.800Z,25.73
2023-05-04T10:58:47.464Z,23.80
2023-05-04T10:59:48.177Z,26.05
2023-05-04T11:00:48.984Z,26.70
2023-05-04T11:01:49.642Z,25.41
2023-05-04T11:02:50.527Z,24.12
2023-05-04T11:03:51.271Z,26.70
2023-05-04T11:04:51.926Z,26.38
2023-05-04T11:05:52.653Z,22.51
2023-05-04T11:06:53.359Z,23.15
2023-05-04T11:07:54.032Z,26.70
2023-05-04T11:08:54.736Z,26.38
2023-05-04T11:09:55.453Z,27.02
2023-05-04T11:10:56.176Z,30.24
2023-05-04T11:11:56.873Z,30.57
2023-05-04T11:12:57.630Z,25.73
2023-05-04T11:13:58.317Z,30.57
2023-05-04T11:14:59.032Z,22.83
2023-05-04T11:15:59.896Z,27.02
2023-05-04T11:17:00.548Z,22.83
2023-05-04T11:18:01.260Z,27.02
2023-05-04T11:19:01.948Z,29.60
2023-05-04T11:20:02.655Z,26.70
2023-05-04T11:21:03.369Z,27.67
2023-05-04T11:22:04.107Z,31.21
2023-05-04T11:23:04.786Z,24.44
2023-05-04T11:24:05.495Z,29.92
2023-05-04T11:25:06.320Z,23.15
2023-05-04T11:26:07.447Z,27.34
2023-05-04T11:27:07.741Z,24.12
2023-05-04T11:28:08.472Z,27.67
2023-05-04T11:29:09.416Z,27.34
2023-05-04T11:30:10.134Z,28.31
2023-05-04T11:31:10.863Z,27.67
2023-05-04T11:32:11.569Z,24.12
2023-05-04T11:33:12.365Z,31.86
2023-05-04T11:34:13.090Z,27.99
2023-05-04T11:35:13.780Z,27.99
2023-05-04T11:36:14.849Z,27.34
2023-05-04T11:37:15.098Z,27.99
2023-05-04T11:38:15.736Z,29.92
2023-05-04T11:39:16.442Z,27.99
2023-05-04T11:40:17.149Z,26.05
2023-05-04T11:41:18.356Z,27.67
2023-05-04T11:42:18.551Z,31.86
2023-05-04T11:43:19.273Z,28.31
2023-05-04T11:44:19.953Z,28.31
2023-05-04T11:45:20.658Z,31.86
2023-05-04T11:46:21.871Z,26.70
2023-05-04T11:47:22.077Z,31.86
2023-05-04T11:48:22.763Z,23.15
2023-05-04T11:49:23.470Z,27.99
2023-05-04T11:50:24.169Z,27.99
2023-05-04T11:51:25.342Z,27.99
2023-05-04T11:52:25.576Z,30.24
2023-05-04T11:53:26.205Z,27.67
2023-05-04T11:54:26.918Z,24.12
2023-05-04T11:55:27.632Z,25.73
2023-05-04T11:56:28.357Z,26.70
2023-05-04T11:57:29.065Z,25.09
2023-05-04T11:58:29.808Z,28.63
2023-05-04T11:59:30.499Z,27.99
2023-05-04T12:00:31.190Z,27.99
2023-05-04T12:01:31.965Z,28.63
2023-05-04T12:02:32.716Z,28.63
2023-05-04T12:03:50.858Z,28.63
2023-05-04T12:04:34.988Z,32.50
2023-05-04T12:05:34.710Z,28.63
2023-05-04T12:06:35.857Z,26.38
2023-05-04T12:07:36.081Z,30.57
2023-05-04T12:08:36.704Z,32.18
2023-05-04T12:09:37.414Z,24.44
2023-05-04T12:10:38.120Z,28.96
2023-05-04T12:11:38.853Z,30.89
2023-05-04T12:12:39.595Z,32.18
2023-05-04T12:13:40.308Z,28.96
2023-05-04T12:14:40.990Z,30.89
2023-05-04T12:15:41.696Z,25.09
2023-05-04T12:16:43.048Z,33.14
2023-05-04T12:17:42.953Z,33.14
2023-05-04T12:18:43.612Z,28.96
2023-05-04T12:19:44.320Z,32.82
2023-05-04T12:20:45.036Z,25.09
2023-05-04T12:21:45.854Z,29.60
2023-05-04T12:22:46.607Z,33.14
2023-05-04T12:23:47.380Z,27.02
2023-05-04T12:24:48.069Z,29.28
2023-05-04T12:25:57.777Z,29.28
2023-05-04T12:26:50.853Z,28.63
2023-05-04T12:27:50.057Z,29.60
2023-05-04T12:28:50.789Z,26.38
2023-05-04T12:29:51.545Z,27.99
2023-05-04T12:30:52.255Z,33.47
2023-05-04T12:31:53.435Z,33.14
2023-05-04T12:32:53.635Z,29.60
2023-05-04T12:33:54.286Z,27.99
2023-05-04T12:34:55.003Z,29.60
2023-05-04T12:35:55.706Z,31.53
2023-05-04T12:36:56.890Z,27.99
2023-05-04T12:37:57.095Z,29.92
2023-05-04T12:38:57.753Z,29.60
2023-05-04T12:39:58.459Z,30.24
2023-05-04T12:40:59.160Z,30.24
2023-05-04T12:42:00.388Z,29.92
2023-05-04T12:43:00.621Z,29.92
2023-05-04T12:44:01.361Z,30.24
2023-05-04T12:45:02.043Z,29.92
2023-05-04T12:46:02.742Z,30.57
2023-05-04T12:47:03.857Z,34.11
2023-05-04T12:48:04.092Z,30.57
2023-05-04T12:49:04.766Z,32.18
2023-05-04T12:50:05.480Z,30.57
2023-05-04T12:51:06.194Z,29.60
2023-05-04T12:52:06.888Z,30.57
2023-05-04T12:53:07.642Z,26.70
2023-05-04T12:54:08.319Z,30.24
2023-05-04T12:55:09.087Z,36.69
2023-05-04T12:56:09.804Z,30.89
2023-05-04T12:57:10.515Z,26.70
2023-05-04T12:58:11.240Z,31.21
2023-05-04T12:59:11.961Z,27.02
2023-05-04T13:00:12.643Z,34.43
2023-05-04T13:01:13.371Z,26.70
2023-05-04T13:02:14.162Z,30.24
2023-05-04T13:03:15.004Z,31.53
2023-05-04T13:04:15.684Z,30.89
2023-05-04T13:05:16.391Z,31.21
2023-05-04T13:06:17.104Z,31.21
2023-05-04T13:07:17.809Z,31.21
2023-05-04T13:08:18.544Z,30.89
2023-05-04T13:09:19.216Z,31.21